sensor_id;sensor_type;location;lat;lon;timestamp;pressure;altitude;pressure_sealevel;temperature;humidity
11985;BME280;6052;53.246;10.368;2023-07-29T00:01:11;100212.44;;;22.46;100.00
11985;BME280;6052;53.246;10.368;2023-07-29T00:03:43;100218.69;;;22.38;100.00
11985;BME280;6052;53.246;10.368;2023-07-29T00:06:12;100214.19;;;22.42;100.00
11985;BME280;6052;53.246;10.368;2023-07-29T00:08:42;100212.53;;;22.41;100.00
11985;BME280;6052;53.246;10.368;2023-07-29T00:11:11;100207.09;;;22.32;100.00
11985;BME280;6052;53.246;10.368;2023-07-29T00:13:41;100207.78;;;22.29;100.00
11985;BME280;6052;53.246;10.368;2023-07-29T00:16:10;100206.31;;;22.23;100.00
11985;BME280;6052;53.246;10.368;2023-07-29T00:18:44;100197.94;;;22.28;100.00
11985;BME280;6052;53.246;10.368;2023-07-29T00:21:14;100193.28;;;22.29;100.00
11985;BME280;6052;53.246;10.368;2023-07-29T00:23:44;100191.69;;;22.28;100.00
11985;BME280;6052;53.246;10.368;2023-07-29T00:26:14;100188.81;;;22.16;100.00
11985;BME280;6052;53.246;10.368;2023-07-29T00:28:43;100183.34;;;22.24;100.00
11985;BME280;6052;53.246;10.368;2023-07-29T00:31:13;100182.38;;;22.20;100.00
11985;BME280;6052;53.246;10.368;2023-07-29T00:33:45;100179.97;;;22.19;100.00
11985;BME280;6052;53.246;10.368;2023-07-29T00:36:14;100171.94;;;22.14;100.00
11985;BME280;6052;53.246;10.368;2023-07-29T00:38:43;100165.66;;;22.22;100.00
11985;BME280;6052;53.246;10.368;2023-07-29T00:41:13;100155.22;;;22.15;100.00
11985;BME280;6052;53.246;10.368;2023-07-29T00:43:43;100166.31;;;22.10;100.00
11985;BME280;6052;53.246;10.368;2023-07-29T00:46:13;100169.69;;;22.07;100.00
11985;BME280;6052;53.246;10.368;2023-07-29T00:48:45;100168.41;;;22.05;100.00
11985;BME280;6052;53.246;10.368;2023-07-29T00:51:15;100165.50;;;22.10;100.00
11985;BME280;6052;53.246;10.368;2023-07-29T00:53:44;100167.78;;;22.08;100.00
11985;BME280;6052;53.246;10.368;2023-07-29T00:56:14;100163.28;;;22.12;100.00
11985;BME280;6052;53.246;10.368;2023-07-29T00:58:43;100166.31;;;22.10;100.00
11985;BME280;6052;53.246;10.368;2023-07-29T01:01:13;100167.66;;;21.79;100.00
11985;BME280;6052;53.246;10.368;2023-07-29T01:03:45;100156.59;;;21.75;100.00
11985;BME280;6052;53.246;10.368;2023-07-29T01:06:21;100165.75;;;21.54;100.00
11985;BME280;6052;53.246;10.368;2023-07-29T01:08:56;100158.81;;;21.65;100.00
11985;BME280;6052;53.246;10.368;2023-07-29T01:11:35;100154.63;;;21.67;100.00
11985;BME280;6052;53.246;10.368;2023-07-29T01:14:16;100155.28;;;21.56;100.00
11985;BME280;6052;53.246;10.368;2023-07-29T01:16:52;100153.97;;;21.62;100.00
11985;BME280;6052;53.246;10.368;2023-07-29T01:19:42;100151.13;;;21.41;100.00
11985;BME280;6052;53.246;10.368;2023-07-29T01:22:13;100160.91;;;21.51;100.00
11985;BME280;6052;53.246;10.368;2023-07-29T01:24:49;100159.94;;;21.30;100.00
11985;BME280;6052;53.246;10.368;2023-07-29T01:27:18;100157.53;;;21.37;100.00
11985;BME280;6052;53.246;10.368;2023-07-29T01:29:48;100160.56;;;21.35;100.00
11985;BME280;6052;53.246;10.368;2023-07-29T01:32:25;100155.75;;;21.07;100.00
11985;BME280;6052;53.246;10.368;2023-07-29T01:35:01;100149.19;;;21.25;100.00
11985;BME280;6052;53.246;10.368;2023-07-29T01:37:33;100148.53;;;21.02;100.00
11985;BME280;6052;53.246;10.368;2023-07-29T01:40:07;100142.72;;;21.04;100.00
11985;BME280;6052;53.246;10.368;2023-07-29T01:42:38;100153.28;;;20.88;100.00
11985;BME280;6052;53.246;10.368;2023-07-29T01:45:10;100146.25;;;20.96;100.00
11985;BME280;6052;53.246;10.368;2023-07-29T01:47:42;100153.72;;;20.82;100.00
11985;BME280;6052;53.246;10.368;2023-07-29T01:50:12;100150.28;;;20.98;100.00
11985;BME280;6052;53.246;10.368;2023-07-29T01:52:41;100153.16;;;21.02;100.00
11985;BME280;6052;53.246;10.368;2023-07-29T01:55:13;100138.22;;;21.08;100.00
11985;BME280;6052;53.246;10.368;2023-07-29T01:57:43;100146.13;;;21.35;100.00
11985;BME280;6052;53.246;10.368;2023-07-29T02:00:13;100151.41;;;21.14;100.00
11985;BME280;6052;53.246;10.368;2023-07-29T02:02:42;100152.69;;;21.25;100.00
11985;BME280;6052;53.246;10.368;2023-07-29T02:05:12;100149.66;;;21.27;100.00
11985;BME280;6052;53.246;10.368;2023-07-29T02:07:41;100139.22;;;21.29;100.00
11985;BME280;6052;53.246;10.368;2023-07-29T02:10:13;100127.81;;;21.27;100.00
11985;BME280;6052;53.246;10.368;2023-07-29T02:12:44;100133.91;;;21.24;100.00
11985;BME280;6052;53.246;10.368;2023-07-29T02:15:13;100136.31;;;21.25;100.00
11985;BME280;6052;53.246;10.368;2023-07-29T02:17:43;100128.63;;;21.36;100.00
11985;BME280;6052;53.246;10.368;2023-07-29T02:20:12;100125.38;;;21.51;100.00
11985;BME280;6052;53.246;10.368;2023-07-29T02:22:42;100120.22;;;21.58;100.00
11985;BME280;6052;53.246;10.368;2023-07-29T02:25:14;100120.41;;;21.19;100.00
11985;BME280;6052;53.246;10.368;2023-07-29T02:27:44;100123.63;;;21.38;100.00
11985;BME280;6052;53.246;10.368;2023-07-29T02:30:16;100117.84;;;21.31;100.00
11985;BME280;6052;53.246;10.368;2023-07-29T02:32:45;100125.88;;;21.36;100.00
11985;BME280;6052;53.246;10.368;2023-07-29T02:35:15;100119.75;;;21.56;100.00
11985;BME280;6052;53.246;10.368;2023-07-29T02:37:44;100125.06;;;21.61;100.00
11985;BME280;6052;53.246;10.368;2023-07-29T02:40:16;100129.09;;;21.72;100.00
11985;BME280;6052;53.246;10.368;2023-07-29T02:42:47;100126.19;;;21.77;100.00
11985;BME280;6052;53.246;10.368;2023-07-29T02:45:16;100118.94;;;21.55;100.00
11985;BME280;6052;53.246;10.368;2023-07-29T02:47:46;100115.72;;;21.62;100.00
11985;BME280;6052;53.246;10.368;2023-07-29T02:50:15;100118.00;;;21.68;100.00
11985;BME280;6052;53.246;10.368;2023-07-29T02:52:45;100109.31;;;21.66;100.00
11985;BME280;6052;53.246;10.368;2023-07-29T02:55:19;100106.25;;;21.68;100.00
11985;BME280;6052;53.246;10.368;2023-07-29T02:57:49;100109.78;;;21.60;100.00
11985;BME280;6052;53.246;10.368;2023-07-29T03:00:18;100112.22;;;21.61;100.00
11985;BME280;6052;53.246;10.368;2023-07-29T03:02:47;100107.06;;;21.60;100.00
11985;BME280;6052;53.246;10.368;2023-07-29T03:05:17;100113.66;;;21.59;100.00
11985;BME280;6052;53.246;10.368;2023-07-29T03:07:46;100107.53;;;21.62;100.00
11985;BME280;6052;53.246;10.368;2023-07-29T03:10:18;100104.00;;;21.53;100.00
11985;BME280;6052;53.246;10.368;2023-07-29T03:12:49;100107.53;;;21.62;100.00
11985;BME280;6052;53.246;10.368;2023-07-29T03:15:18;100105.13;;;21.52;100.00
11985;BME280;6052;53.246;10.368;2023-07-29T03:17:47;100101.63;;;21.34;100.00
11985;BME280;6052;53.246;10.368;2023-07-29T03:20:17;100115.59;;;21.33;100.00
11985;BME280;6052;53.246;10.368;2023-07-29T03:22:46;100113.34;;;21.18;100.00
11985;BME280;6052;53.246;10.368;2023-07-29T03:25:18;100121.22;;;21.28;100.00
11985;BME280;6052;53.246;10.368;2023-07-29T03:27:48;100124.13;;;21.40;100.00
11985;BME280;6052;53.246;10.368;2023-07-29T03:30:19;100127.81;;;21.44;100.00
11985;BME280;6052;53.246;10.368;2023-07-29T03:32:49;100117.81;;;21.48;100.00
11985;BME280;6052;53.246;10.368;2023-07-29T03:35:19;100118.97;;;21.38;100.00
11985;BME280;6052;53.246;10.368;2023-07-29T03:37:48;100119.28;;;21.45;100.00
11985;BME280;6052;53.246;10.368;2023-07-29T03:40:20;100119.13;;;21.42;100.00
11985;BME280;6052;53.246;10.368;2023-07-29T03:42:50;100102.56;;;21.47;100.00
11985;BME280;6052;53.246;10.368;2023-07-29T03:45:19;100104.16;;;21.48;100.00
11985;BME280;6052;53.246;10.368;2023-07-29T03:47:49;100102.13;;;21.36;100.00
11985;BME280;6052;53.246;10.368;2023-07-29T03:50:18;100104.19;;;21.39;100.00
11985;BME280;6052;53.246;10.368;2023-07-29T03:52:47;100099.84;;;21.47;100.00
11985;BME280;6052;53.246;10.368;2023-07-29T03:55:20;100104.97;;;21.48;100.00
11985;BME280;6052;53.246;10.368;2023-07-29T03:57:50;100097.13;;;21.21;100.00
11985;BME280;6052;53.246;10.368;2023-07-29T04:00:19;100112.38;;;21.39;100.00
11985;BME280;6052;53.246;10.368;2023-07-29T04:02:49;100108.69;;;21.44;100.00
11985;BME280;6052;53.246;10.368;2023-07-29T04:05:18;100111.25;;;21.40;100.00
11985;BME280;6052;53.246;10.368;2023-07-29T04:07:48;100111.59;;;21.39;100.00
11985;BME280;6052;53.246;10.368;2023-07-29T04:10:17;100107.06;;;21.43;100.00
11985;BME280;6052;53.246;10.368;2023-07-29T04:12:49;100099.69;;;21.43;100.00
11985;BME280;6052;53.246;10.368;2023-07-29T04:15:19;100098.56;;;21.44;100.00
11985;BME280;6052;53.246;10.368;2023-07-29T04:17:48;100099.38;;;21.45;100.00
11985;BME280;6052;53.246;10.368;2023-07-29T04:20:17;100098.38;;;21.49;100.00
11985;BME280;6052;53.246;10.368;2023-07-29T04:22:47;100103.69;;;21.46;100.00
11985;BME280;6052;53.246;10.368;2023-07-29T04:25:16;100098.56;;;21.44;100.00
11985;BME280;6052;53.246;10.368;2023-07-29T04:27:48;100100.66;;;21.47;100.00
11985;BME280;6052;53.246;10.368;2023-07-29T04:30:18;100097.09;;;21.47;100.00
11985;BME280;6052;53.246;10.368;2023-07-29T04:32:47;100100.66;;;21.47;100.00
11985;BME280;6052;53.246;10.368;2023-07-29T04:35:17;100094.53;;;21.42;100.00
11985;BME280;6052;53.246;10.368;2023-07-29T04:37:46;100099.69;;;21.35;100.00
11985;BME280;6052;53.246;10.368;2023-07-29T04:40:16;100103.56;;;21.42;100.00
11985;BME280;6052;53.246;10.368;2023-07-29T04:42:45;100101.31;;;21.36;100.00
11985;BME280;6052;53.246;10.368;2023-07-29T04:45:17;100100.16;;;21.37;100.00
11985;BME280;6052;53.246;10.368;2023-07-29T04:47:47;100096.63;;;21.45;100.00
11985;BME280;6052;53.246;10.368;2023-07-29T04:50:16;100096.81;;;21.40;100.00
11985;BME280;6052;53.246;10.368;2023-07-29T04:52:46;100103.56;;;21.42;100.00
11985;BME280;6052;53.246;10.368;2023-07-29T04:55:15;100097.28;;;21.42;100.00
11985;BME280;6052;53.246;10.368;2023-07-29T04:57:45;100099.38;;;21.36;100.00
11985;BME280;6052;53.246;10.368;2023-07-29T05:00:15;100109.50;;;21.36;100.00
11985;BME280;6052;53.246;10.368;2023-07-29T05:02:48;100115.13;;;21.31;100.00
11985;BME280;6052;53.246;10.368;2023-07-29T05:05:18;100108.38;;;21.28;100.00
11985;BME280;6052;53.246;10.368;2023-07-29T05:07:47;100105.16;;;21.35;100.00
11985;BME280;6052;53.246;10.368;2023-07-29T05:10:16;100104.34;;;21.43;100.00
11985;BME280;6052;53.246;10.368;2023-07-29T05:12:47;100098.72;;;21.39;100.00
11985;BME280;6052;53.246;10.368;2023-07-29T05:15:16;100091.34;;;21.40;100.00
11985;BME280;6052;53.246;10.368;2023-07-29T05:17:48;100085.38;;;21.38;100.00
11985;BME280;6052;53.246;10.368;2023-07-29T05:20:17;100088.91;;;21.47;100.00
11985;BME280;6052;53.246;10.368;2023-07-29T05:22:47;100089.25;;;21.28;100.00
11985;BME280;6052;53.246;10.368;2023-07-29T05:25:16;100089.75;;;21.39;100.00
11985;BME280;6052;53.246;10.368;2023-07-29T05:27:46;100100.84;;;21.34;100.00
11985;BME280;6052;53.246;10.368;2023-07-29T05:30:15;100096.00;;;21.31;100.00
11985;BME280;6052;53.246;10.368;2023-07-29T05:32:47;100105.16;;;21.35;100.00
11985;BME280;6052;53.246;10.368;2023-07-29T05:35:17;100095.50;;;21.20;100.00
11985;BME280;6052;53.246;10.368;2023-07-29T05:37:46;100094.06;;;21.48;100.00
11985;BME280;6052;53.246;10.368;2023-07-29T05:40:16;100098.72;;;21.56;100.00
11985;BME280;6052;53.246;10.368;2023-07-29T05:42:46;100101.09;;;21.58;100.00
11985;BME280;6052;53.246;10.368;2023-07-29T05:45:15;100099.16;;;21.67;100.00
11985;BME280;6052;53.246;10.368;2023-07-29T05:47:47;100113.34;;;21.52;100.00
11985;BME280;6052;53.246;10.368;2023-07-29T05:50:17;100103.53;;;21.51;100.00
11985;BME280;6052;53.246;10.368;2023-07-29T05:52:46;100100.63;;;21.56;100.00
11985;BME280;6052;53.246;10.368;2023-07-29T05:55:16;100085.34;;;21.72;100.00
11985;BME280;6052;53.246;10.368;2023-07-29T05:57:46;100084.72;;;21.75;100.00
11985;BME280;6052;53.246;10.368;2023-07-29T06:00:15;100087.00;;;21.73;100.00
11985;BME280;6052;53.246;10.368;2023-07-29T06:02:47;100105.94;;;21.69;100.00
11985;BME280;6052;53.246;10.368;2023-07-29T06:05:17;100097.41;;;21.79;100.00
11985;BME280;6052;53.246;10.368;2023-07-29T06:07:47;100099.97;;;21.84;100.00
11985;BME280;6052;53.246;10.368;2023-07-29T06:10:16;100096.91;;;21.86;100.00
11985;BME280;6052;53.246;10.368;2023-07-29T06:12:46;100104.16;;;21.65;100.00
11985;BME280;6052;53.246;10.368;2023-07-29T06:15:15;100096.13;;;21.77;100.00
11985;BME280;6052;53.246;10.368;2023-07-29T06:17:51;100109.63;;;21.65;100.00
11985;BME280;6052;53.246;10.368;2023-07-29T06:20:23;100105.47;;;21.59;100.00
11985;BME280;6052;53.246;10.368;2023-07-29T06:22:52;100106.25;;;21.76;100.00
11985;BME280;6052;53.246;10.368;2023-07-29T06:25:21;100092.59;;;21.76;100.00
11985;BME280;6052;53.246;10.368;2023-07-29T06:27:51;100086.19;;;21.72;100.00
11985;BME280;6052;53.246;10.368;2023-07-29T06:30:21;100083.91;;;21.74;100.00
11985;BME280;6052;53.246;10.368;2023-07-29T06:32:53;100086.00;;;21.77;100.00
11985;BME280;6052;53.246;10.368;2023-07-29T06:35:22;100086.78;;;21.86;100.00
11985;BME280;6052;53.246;10.368;2023-07-29T06:37:52;100078.91;;;21.85;100.00
11985;BME280;6052;53.246;10.368;2023-07-29T06:40:21;100080.81;;;21.93;100.00
11985;BME280;6052;53.246;10.368;2023-07-29T06:42:50;100089.31;;;22.00;100.00
11985;BME280;6052;53.246;10.368;2023-07-29T06:45:20;100093.34;;;21.94;100.00
11985;BME280;6052;53.246;10.368;2023-07-29T06:47:49;100093.53;;;21.89;100.00
11985;BME280;6052;53.246;10.368;2023-07-29T06:50:22;100095.13;;;21.90;100.00
11985;BME280;6052;53.246;10.368;2023-07-29T06:52:53;100095.91;;;21.99;100.00
11985;BME280;6052;53.246;10.368;2023-07-29T06:55:23;100092.03;;;22.00;100.00
11985;BME280;6052;53.246;10.368;2023-07-29T06:57:52;100079.88;;;21.89;100.00
11985;BME280;6052;53.246;10.368;2023-07-29T07:00:22;100082.38;;;22.02;100.00
11985;BME280;6052;53.246;10.368;2023-07-29T07:02:51;100089.13;;;22.05;100.00
11985;BME280;6052;53.246;10.368;2023-07-29T07:05:23;100089.63;;;22.07;100.00
11985;BME280;6052;53.246;10.368;2023-07-29T07:07:53;100097.16;;;22.10;100.00
11985;BME280;6052;53.246;10.368;2023-07-29T07:10:22;100092.00;;;22.17;100.00
11985;BME280;6052;53.246;10.368;2023-07-29T07:12:51;100092.34;;;22.07;100.00
11985;BME280;6052;53.246;10.368;2023-07-29T07:15:21;100093.13;;;22.07;100.00
11985;BME280;6052;53.246;10.368;2023-07-29T07:17:51;100090.09;;;22.09;100.00
11985;BME280;6052;53.246;10.368;2023-07-29T07:20:23;100097.66;;;22.12;100.00
11985;BME280;6052;53.246;10.368;2023-07-29T07:22:52;100093.00;;;22.04;100.00
11985;BME280;6052;53.246;10.368;2023-07-29T07:25:22;100091.81;;;22.13;100.00
11985;BME280;6052;53.246;10.368;2023-07-29T07:27:51;100091.81;;;22.22;100.00
11985;BME280;6052;53.246;10.368;2023-07-29T07:30:33;100085.06;;;22.19;100.00
11985;BME280;6052;53.246;10.368;2023-07-29T07:33:03;100084.44;;;22.14;100.00
11985;BME280;6052;53.246;10.368;2023-07-29T07:35:35;100089.06;;;22.22;100.00
11985;BME280;6052;53.246;10.368;2023-07-29T07:38:04;100074.31;;;22.06;100.00
11985;BME280;6052;53.246;10.368;2023-07-29T07:40:36;100087.34;;;22.09;100.00
11985;BME280;6052;53.246;10.368;2023-07-29T07:43:05;100085.72;;;22.16;100.00
11985;BME280;6052;53.246;10.368;2023-07-29T07:45:35;100096.78;;;22.20;100.00
11985;BME280;6052;53.246;10.368;2023-07-29T07:48:05;100083.06;;;22.28;100.00
11985;BME280;6052;53.246;10.368;2023-07-29T07:50:39;100077.13;;;22.26;100.00
11985;BME280;6052;53.246;10.368;2023-07-29T07:53:09;100075.22;;;22.27;100.00
11985;BME280;6052;53.246;10.368;2023-07-29T07:55:39;100078.03;;;22.39;100.00
11985;BME280;6052;53.246;10.368;2023-07-29T07:58:08;100085.28;;;22.35;100.00
11985;BME280;6052;53.246;10.368;2023-07-29T08:00:38;100089.97;;;22.34;100.00
11985;BME280;6052;53.246;10.368;2023-07-29T08:03:07;100086.44;;;22.34;100.00
11985;BME280;6052;53.246;10.368;2023-07-29T08:05:39;100087.69;;;22.45;100.00
11985;BME280;6052;53.246;10.368;2023-07-29T08:08:09;100091.72;;;22.39;100.00
11985;BME280;6052;53.246;10.368;2023-07-29T08:10:38;100088.16;;;22.38;100.00
11985;BME280;6052;53.246;10.368;2023-07-29T08:13:08;100094.59;;;22.51;100.00
11985;BME280;6052;53.246;10.368;2023-07-29T08:15:37;100092.41;;;22.27;100.00
11985;BME280;6052;53.246;10.368;2023-07-29T08:18:07;100085.63;;;22.33;100.00
11985;BME280;6052;53.246;10.368;2023-07-29T08:20:39;100083.16;;;22.49;100.00
11985;BME280;6052;53.246;10.368;2023-07-29T08:23:09;100082.22;;;22.45;100.00
11985;BME280;6052;53.246;10.368;2023-07-29T08:25:38;100074.31;;;22.52;100.00
11985;BME280;6052;53.246;10.368;2023-07-29T08:28:07;100069.47;;;22.49;100.00
11985;BME280;6052;53.246;10.368;2023-07-29T08:30:37;100081.44;;;22.45;100.00
11985;BME280;6052;53.246;10.368;2023-07-29T08:33:07;100074.88;;;22.28;100.00
11985;BME280;6052;53.246;10.368;2023-07-29T08:35:39;100073.91;;;22.33;100.00
11985;BME280;6052;53.246;10.368;2023-07-29T08:38:08;100075.44;;;22.42;100.00
11985;BME280;6052;53.246;10.368;2023-07-29T08:40:42;100073.63;;;22.55;100.00
11985;BME280;6052;53.246;10.368;2023-07-29T08:43:14;100072.22;;;22.49;100.00
11985;BME280;6052;53.246;10.368;2023-07-29T08:45:45;100070.25;;;22.58;100.00
11985;BME280;6052;53.246;10.368;2023-07-29T08:48:19;100082.97;;;22.54;100.00
11985;BME280;6052;53.246;10.368;2023-07-29T08:50:55;100080.03;;;22.59;100.00
11985;BME280;6052;53.246;10.368;2023-07-29T08:53:26;100067.06;;;22.48;100.00
11985;BME280;6052;53.246;10.368;2023-07-29T08:55:57;100070.16;;;22.46;100.00
11985;BME280;6052;53.246;10.368;2023-07-29T08:58:27;100064.16;;;22.52;100.00
11985;BME280;6052;53.246;10.368;2023-07-29T09:00:57;100063.94;;;22.58;100.00
11985;BME280;6052;53.246;10.368;2023-07-29T09:03:27;100066.88;;;22.52;100.00
11985;BME280;6052;53.246;10.368;2023-07-29T09:06:02;100057.69;;;22.57;100.00
11985;BME280;6052;53.246;10.368;2023-07-29T09:08:32;100058.16;;;22.59;100.00
11985;BME280;6052;53.246;10.368;2023-07-29T09:11:03;100065.84;;;22.66;100.00
11985;BME280;6052;53.246;10.368;2023-07-29T09:13:32;100077.50;;;22.54;100.00
11985;BME280;6052;53.246;10.368;2023-07-29T09:16:04;100087.13;;;22.60;100.00
11985;BME280;6052;53.246;10.368;2023-07-29T09:18:34;100082.84;;;22.51;100.00
11985;BME280;6052;53.246;10.368;2023-07-29T09:21:06;100074.13;;;22.19;100.00
11985;BME280;6052;53.246;10.368;2023-07-29T09:23:39;100074.94;;;22.11;100.00
11985;BME280;6052;53.246;10.368;2023-07-29T09:26:10;100076.44;;;22.00;100.00
11985;BME280;6052;53.246;10.368;2023-07-29T09:28:40;100087.50;;;22.12;100.00
11985;BME280;6052;53.246;10.368;2023-07-29T09:31:19;100082.28;;;22.28;100.00
11985;BME280;6052;53.246;10.368;2023-07-29T09:33:49;100081.91;;;22.38;100.00
11985;BME280;6052;53.246;10.368;2023-07-29T09:36:21;100071.06;;;22.50;100.00
11985;BME280;6052;53.246;10.368;2023-07-29T09:38:52;100076.13;;;22.39;100.00
11985;BME280;6052;53.246;10.368;2023-07-29T09:41:23;100080.69;;;22.27;100.00
11985;BME280;6052;53.246;10.368;2023-07-29T09:43:56;100076.38;;;22.17;100.00
11985;BME280;6052;53.246;10.368;2023-07-29T09:46:32;100086.22;;;22.10;100.00
11985;BME280;6052;53.246;10.368;2023-07-29T09:49:04;100086.00;;;22.23;100.00
11985;BME280;6052;53.246;10.368;2023-07-29T09:51:40;100072.34;;;22.15;100.00
11985;BME280;6052;53.246;10.368;2023-07-29T09:54:10;100080.38;;;22.20;100.00
11985;BME280;6052;53.246;10.368;2023-07-29T09:56:42;100083.97;;;22.12;100.00
11985;BME280;6052;53.246;10.368;2023-07-29T09:59:12;100094.91;;;22.12;100.00
11985;BME280;6052;53.246;10.368;2023-07-29T10:01:42;100095.50;;;22.17;100.00
11985;BME280;6052;53.246;10.368;2023-07-29T10:04:13;100099.28;;;22.33;100.00
11985;BME280;6052;53.246;10.368;2023-07-29T10:06:46;100097.47;;;22.17;100.00
11985;BME280;6052;53.246;10.368;2023-07-29T10:09:17;100085.16;;;22.31;100.00
11985;BME280;6052;53.246;10.368;2023-07-29T10:11:47;100086.34;;;22.13;100.00
11985;BME280;6052;53.246;10.368;2023-07-29T10:14:17;100085.19;;;22.23;100.00
11985;BME280;6052;53.246;10.368;2023-07-29T10:16:47;100086.03;;;22.15;100.00
11985;BME280;6052;53.246;10.368;2023-07-29T10:19:19;100069.88;;;22.30;100.00
11985;BME280;6052;53.246;10.368;2023-07-29T10:21:52;100068.69;;;22.40;100.00
11985;BME280;6052;53.246;10.368;2023-07-29T10:24:29;100068.41;;;22.33;100.00
11985;BME280;6052;53.246;10.368;2023-07-29T10:27:01;100064.81;;;22.41;100.00
11985;BME280;6052;53.246;10.368;2023-07-29T10:29:32;100052.75;;;22.51;100.00
11985;BME280;6052;53.246;10.368;2023-07-29T10:32:07;100065.31;;;22.43;100.00
11985;BME280;6052;53.246;10.368;2023-07-29T10:34:38;100068.84;;;22.52;100.00
11985;BME280;6052;53.246;10.368;2023-07-29T10:37:11;100066.75;;;22.49;100.00
11985;BME280;6052;53.246;10.368;2023-07-29T10:39:52;100070.75;;;22.52;100.00
11985;BME280;6052;53.246;10.368;2023-07-29T10:42:22;100070.63;;;22.48;100.00
11985;BME280;6052;53.246;10.368;2023-07-29T10:44:52;100072.22;;;22.49;100.00
11985;BME280;6052;53.246;10.368;2023-07-29T10:47:23;100067.19;;;22.60;100.00
11985;BME280;6052;53.246;10.368;2023-07-29T10:49:56;100065.53;;;22.67;100.00
11985;BME280;6052;53.246;10.368;2023-07-29T10:52:40;100059.75;;;22.60;100.00
11985;BME280;6052;53.246;10.368;2023-07-29T10:55:24;100056.63;;;22.70;100.00
11985;BME280;6052;53.246;10.368;2023-07-29T10:58:11;100056.81;;;22.65;100.00
11985;BME280;6052;53.246;10.368;2023-07-29T11:00:42;100063.03;;;22.74;100.00
11985;BME280;6052;53.246;10.368;2023-07-29T11:03:13;100056.44;;;22.75;100.00
11985;BME280;6052;53.246;10.368;2023-07-29T11:05:45;100057.09;;;22.72;100.00
11985;BME280;6052;53.246;10.368;2023-07-29T11:08:23;100049.34;;;22.74;100.00
11985;BME280;6052;53.246;10.368;2023-07-29T11:11:04;100050.63;;;22.77;100.00
11985;BME280;6052;53.246;10.368;2023-07-29T11:13:35;100043.69;;;22.79;100.00
11985;BME280;6052;53.246;10.368;2023-07-29T11:16:05;100042.53;;;22.80;100.00
11985;BME280;6052;53.246;10.368;2023-07-29T11:18:35;100045.91;;;22.86;100.00
11985;BME280;6052;53.246;10.368;2023-07-29T11:21:06;100039.44;;;22.90;100.00
11985;BME280;6052;53.246;10.368;2023-07-29T11:23:38;100034.88;;;22.94;100.00
11985;BME280;6052;53.246;10.368;2023-07-29T11:26:07;100042.00;;;22.87;100.00
11985;BME280;6052;53.246;10.368;2023-07-29T11:28:40;100046.56;;;23.03;100.00
11985;BME280;6052;53.246;10.368;2023-07-29T11:31:09;100039.69;;;22.97;100.00
11985;BME280;6052;53.246;10.368;2023-07-29T11:33:39;100041.78;;;23.00;100.00
11985;BME280;6052;53.246;10.368;2023-07-29T11:36:17;100035.94;;;23.02;100.00
11985;BME280;6052;53.246;10.368;2023-07-29T11:38:50;100037.56;;;23.03;100.00
11985;BME280;6052;53.246;10.368;2023-07-29T11:41:19;100033.00;;;23.07;100.00
11985;BME280;6052;53.246;10.368;2023-07-29T11:43:50;100034.47;;;23.04;100.00
11985;BME280;6052;53.246;10.368;2023-07-29T11:46:22;100038.00;;;23.05;100.00
11985;BME280;6052;53.246;10.368;2023-07-29T11:48:53;100031.06;;;23.07;100.00
11985;BME280;6052;53.246;10.368;2023-07-29T11:51:23;100027.13;;;22.96;100.00
11985;BME280;6052;53.246;10.368;2023-07-29T11:53:57;100033.06;;;22.98;100.00
11985;BME280;6052;53.246;10.368;2023-07-29T11:56:27;100035.50;;;23.20;100.00
11985;BME280;6052;53.246;10.368;2023-07-29T11:58:56;100032.78;;;23.12;100.00
11985;BME280;6052;53.246;10.368;2023-07-29T12:01:26;100040.22;;;23.11;100.00
11985;BME280;6052;53.246;10.368;2023-07-29T12:03:57;100035.81;;;23.19;100.00
11985;BME280;6052;53.246;10.368;2023-07-29T12:06:27;100036.41;;;23.24;100.00
11985;BME280;6052;53.246;10.368;2023-07-29T12:09:00;100041.75;;;23.21;100.00
11985;BME280;6052;53.246;10.368;2023-07-29T12:11:30;100036.78;;;23.35;100.00
11985;BME280;6052;53.246;10.368;2023-07-29T12:14:00;100036.91;;;23.38;100.00
11985;BME280;6052;53.246;10.368;2023-07-29T12:16:29;100037.19;;;23.45;100.00
11985;BME280;6052;53.246;10.368;2023-07-29T12:19:02;100032.84;;;23.44;100.00
11985;BME280;6052;53.246;10.368;2023-07-29T12:21:31;100034.06;;;23.35;100.00
11985;BME280;6052;53.246;10.368;2023-07-29T12:24:05;100038.28;;;23.32;100.00
11985;BME280;6052;53.246;10.368;2023-07-29T12:26:35;100032.38;;;23.42;100.00
11985;BME280;6052;53.246;10.368;2023-07-29T12:29:11;100027.50;;;23.48;100.00
11985;BME280;6052;53.246;10.368;2023-07-29T12:31:41;100015.03;;;23.50;100.00
11985;BME280;6052;53.246;10.368;2023-07-29T12:34:17;100012.47;;;23.66;100.00
11985;BME280;6052;53.246;10.368;2023-07-29T12:36:48;100014.19;;;23.70;100.00
11985;BME280;6052;53.246;10.368;2023-07-29T12:39:22;100014.19;;;23.70;100.00
11985;BME280;6052;53.246;10.368;2023-07-29T12:41:54;100015.25;;;23.90;100.00
11985;BME280;6052;53.246;10.368;2023-07-29T12:44:24;100008.28;;;23.92;100.00
11985;BME280;6052;53.246;10.368;2023-07-29T12:46:54;100008.34;;;23.84;99.57
11985;BME280;6052;53.246;10.368;2023-07-29T12:49:24;100010.06;;;23.76;97.49
11985;BME280;6052;53.246;10.368;2023-07-29T12:51:55;100011.22;;;23.75;96.50
11985;BME280;6052;53.246;10.368;2023-07-29T12:54:27;100006.41;;;23.72;96.02
11985;BME280;6052;53.246;10.368;2023-07-29T12:56:56;100007.81;;;23.78;93.83
11985;BME280;6052;53.246;10.368;2023-07-29T12:59:26;100010.31;;;23.83;93.20